Terminal Aerodrome Forecast
Issued by NWS

Home | Current Version | Previous Version | Text Only | Print | Product List | Glossary On
Versions: 1 2 3 4 5 6 7 8 9 10 11 12 13 14 15 16
000
FTUS46 KSEW 301200 AAA
TAFBFI
TAF AMD
KBFI 301223Z 3012/3112 19005KT P6SM SCT019 OVC050
      TEMPO 3012/3015 -RA BKN019 OVC050
     FM301500 19005KT 6SM -RA BR OVC019
     FM302200 19005KT P6SM -SHRA BKN028 OVC040
     FM310200 17005KT P6SM VCSH BKN040 BKN060 PROB30 3102/3108 -SHRA
     FM310800 18005KT P6SM SCT025 BKN040=

USA.gov is the U.S. government's official web portal to all federal, state and local government web resources and services.